Atkinsons Mills, Pennsylvania
Current Conditions -  °F | °C
As of 8:53 AM on Monday 24 Nov 2014 (Local Time) from KUNV Reporting Station
Clear Clear  
Wind Chill: 15°   Ceiling: Unl
Heat Index: 15°   Visibility: 10mi
Dew Point: 12°   Wind: 10mph
Humidity: 82%   Direction: 200°SSW
Pressure: 29.55"   Gusts: 16mph
Location:  40.5138°N, 77.7384°W
Report Text: KUNV 241353Z 20009G14KT 10SM SKC 15/12 A2955
Loading
Personal Weather Stations






























Interactive Weather Map New forecast layout! Learn more

10-Day Weather Forecast

Advertisements
Track Severe Weather on mobile